createdAt,value
2022-11-06T00:00:30.114Z,1024.11
2022-11-06T00:01:30.181Z,1024.11
2022-11-06T00:02:30.158Z,1024.11
2022-11-06T00:03:30.237Z,1024.1
2022-11-06T00:04:30.137Z,1024.09
2022-11-06T00:05:30.119Z,1024.09
2022-11-06T00:06:30.118Z,1024.08
2022-11-06T00:07:30.139Z,1024.13
2022-11-06T00:08:30.134Z,1024.12
2022-11-06T00:09:30.129Z,1024.12
2022-11-06T00:10:30.132Z,1024.16
2022-11-06T00:11:30.413Z,1024.17
2022-11-06T00:12:30.137Z,1024.18
2022-11-06T00:13:30.126Z,1024.19
2022-11-06T00:14:30.135Z,1024.18
2022-11-06T00:15:30.138Z,1024.22
2022-11-06T00:16:30.134Z,1024.26
2022-11-06T00:17:30.188Z,1024.23
2022-11-06T00:18:30.129Z,1024.27
2022-11-06T00:19:30.132Z,1024.26
2022-11-06T00:20:30.141Z,1024.31
2022-11-06T00:21:30.152Z,1024.31
2022-11-06T00:22:30.139Z,1024.32
2022-11-06T00:23:30.120Z,1024.31
2022-11-06T00:24:30.132Z,1024.35
2022-11-06T00:25:30.135Z,1024.33
2022-11-06T00:26:30.199Z,1024.32
2022-11-06T00:27:30.141Z,1024.32
2022-11-06T00:28:30.128Z,1024.34
2022-11-06T00:29:30.212Z,1024.3
2022-11-06T00:30:30.119Z,1024.32
2022-11-06T00:31:30.231Z,1024.3
2022-11-06T00:32:30.140Z,1024.27
2022-11-06T00:33:30.121Z,1024.3
2022-11-06T00:34:30.125Z,1024.31
2022-11-06T00:35:30.136Z,1024.32
2022-11-06T00:36:30.131Z,1024.3
2022-11-06T00:37:30.140Z,1024.32
2022-11-06T00:38:30.136Z,1024.28
2022-11-06T00:39:30.128Z,1024.28
2022-11-06T00:40:30.144Z,1024.28
2022-11-06T00:41:30.137Z,1024.2
2022-11-06T00:42:30.119Z,1024.18
2022-11-06T00:43:30.140Z,1024.22
2022-11-06T00:44:30.131Z,1024.15
2022-11-06T00:45:30.134Z,1024.14
2022-11-06T00:46:30.124Z,1024.16
2022-11-06T00:47:30.125Z,1024.14
2022-11-06T00:48:30.107Z,1024.11
2022-11-06T00:49:30.116Z,1024.13
2022-11-06T00:50:30.203Z,1024.13
2022-11-06T00:51:30.106Z,1024.14
2022-11-06T00:52:30.130Z,1024.17
2022-11-06T00:53:30.111Z,1024.19
2022-11-06T00:54:30.114Z,1024.22
2022-11-06T00:55:30.114Z,1024.18
2022-11-06T00:56:30.124Z,1024.2
2022-11-06T00:57:30.128Z,1024.21
2022-11-06T00:58:30.112Z,1024.21
2022-11-06T00:59:30.109Z,1024.24
2022-11-06T01:00:30.124Z,1024.22
2022-11-06T01:01:30.266Z,1024.18
2022-11-06T01:02:30.420Z,1024.22
2022-11-06T01:03:30.115Z,1024.19
2022-11-06T01:04:30.110Z,1024.18
2022-11-06T01:05:30.124Z,1024.18
2022-11-06T01:06:30.120Z,1024.21
2022-11-06T01:07:30.143Z,1024.2
2022-11-06T01:08:30.127Z,1024.17
2022-11-06T01:09:30.131Z,1024.17
2022-11-06T01:10:30.131Z,1024.13
2022-11-06T01:11:46.458Z,1024.18
2022-11-06T01:12:30.130Z,1024.2
2022-11-06T01:13:30.130Z,1024.2
2022-11-06T01:14:30.178Z,1024.2
2022-11-06T01:15:30.127Z,1024.2
2022-11-06T01:16:30.130Z,1024.22
2022-11-06T01:17:30.148Z,1024.19
2022-11-06T01:18:30.139Z,1024.21
2022-11-06T01:19:30.133Z,1024.16
2022-11-06T01:20:30.132Z,1024.21
2022-11-06T01:21:30.133Z,1024.19
2022-11-06T01:22:30.138Z,1024.14
2022-11-06T01:23:30.130Z,1024.19
2022-11-06T01:24:30.281Z,1024.18
2022-11-06T01:25:30.134Z,1024.15
2022-11-06T01:26:38.213Z,1024.16
2022-11-06T01:27:30.136Z,1024.13
2022-11-06T01:28:30.131Z,1024.07
2022-11-06T01:29:30.128Z,1024.08
2022-11-06T01:30:30.111Z,1024.08
2022-11-06T01:31:30.126Z,1024.09
2022-11-06T01:32:30.228Z,1024.06
2022-11-06T01:33:30.149Z,1024.08
2022-11-06T01:34:30.140Z,1024.04
2022-11-06T01:35:30.121Z,1024.07
2022-11-06T01:36:30.140Z,1024.05
2022-11-06T01:37:30.137Z,1024.06
2022-11-06T01:38:30.156Z,1024.06
2022-11-06T01:39:30.152Z,1024.05
2022-11-06T01:40:30.123Z,1023.98
2022-11-06T01:41:30.150Z,1024.04
2022-11-06T01:42:30.144Z,1024.05
2022-11-06T01:43:30.120Z,1024.07
2022-11-06T01:44:30.116Z,1024.05
2022-11-06T01:45:30.135Z,1024.03
2022-11-06T01:46:30.128Z,1024.05
2022-11-06T01:47:30.145Z,1024.04
2022-11-06T01:48:30.136Z,1024.08
2022-11-06T01:49:30.143Z,1023.99
2022-11-06T01:50:30.131Z,1023.98
2022-11-06T01:51:30.121Z,1023.97
2022-11-06T01:52:30.141Z,1024
2022-11-06T01:53:30.132Z,1024
2022-11-06T01:54:30.122Z,1024.03
2022-11-06T01:55:30.124Z,1023.96
2022-11-06T01:56:30.154Z,1023.97
2022-11-06T01:57:30.225Z,1023.98
2022-11-06T01:58:30.111Z,1023.95
2022-11-06T01:59:30.106Z,1023.94
2022-11-06T02:00:30.192Z,1023.92
2022-11-06T02:01:30.268Z,1023.95
2022-11-06T02:02:30.224Z,1023.93
2022-11-06T02:03:30.116Z,1023.93
2022-11-06T02:04:30.127Z,1023.92
2022-11-06T02:05:30.112Z,1023.94
2022-11-06T02:06:30.107Z,1023.91
2022-11-06T02:07:30.131Z,1023.94
2022-11-06T02:08:30.108Z,1023.95
2022-11-06T02:09:30.116Z,1023.95
2022-11-06T02:10:30.111Z,1023.99
2022-11-06T02:11:30.291Z,1023.98
2022-11-06T02:12:30.211Z,1024
2022-11-06T02:13:30.112Z,1023.97
2022-11-06T02:14:30.107Z,1023.97
2022-11-06T02:15:30.110Z,1024.01
2022-11-06T02:16:30.109Z,1023.98
2022-11-06T02:17:30.135Z,1024.01
2022-11-06T02:18:30.136Z,1024
2022-11-06T02:19:30.203Z,1024.01
2022-11-06T02:20:30.127Z,1023.97
2022-11-06T02:21:30.197Z,1023.98
2022-11-06T02:22:30.132Z,1023.91
2022-11-06T02:23:30.137Z,1023.87
2022-11-06T02:24:30.128Z,1023.91
2022-11-06T02:25:30.121Z,1023.9
2022-11-06T02:26:30.144Z,1023.89
2022-11-06T02:27:30.139Z,1023.89
2022-11-06T02:28:30.124Z,1023.86
2022-11-06T02:29:30.130Z,1023.87
2022-11-06T02:30:30.124Z,1023.87
2022-11-06T02:31:30.127Z,1023.84
2022-11-06T02:32:30.135Z,1023.82
2022-11-06T02:33:30.127Z,1023.82
2022-11-06T02:34:30.125Z,1023.84
2022-11-06T02:35:30.136Z,1023.84
2022-11-06T02:36:30.128Z,1023.82
2022-11-06T02:37:30.136Z,1023.8
2022-11-06T02:38:30.131Z,1023.84
2022-11-06T02:39:30.126Z,1023.82
2022-11-06T02:40:30.132Z,1023.89
2022-11-06T02:41:30.136Z,1023.87
2022-11-06T02:42:30.130Z,1023.89
2022-11-06T02:43:30.136Z,1023.89
2022-11-06T02:44:30.130Z,1023.87
2022-11-06T02:45:30.126Z,1023.92
2022-11-06T02:46:30.130Z,1023.91
2022-11-06T02:47:30.140Z,1023.92
2022-11-06T02:48:30.127Z,1023.88
2022-11-06T02:49:30.129Z,1023.93
2022-11-06T02:50:30.127Z,1023.9
2022-11-06T02:51:30.128Z,1023.95
2022-11-06T02:52:30.129Z,1023.93
2022-11-06T02:53:30.153Z,1023.92
2022-11-06T02:54:30.204Z,1023.94
2022-11-06T02:55:30.125Z,1023.92
2022-11-06T02:56:30.134Z,1023.99
2022-11-06T02:57:30.143Z,1023.97
2022-11-06T02:58:30.120Z,1024.01
2022-11-06T02:59:30.123Z,1023.93
2022-11-06T03:00:30.110Z,1024.04
2022-11-06T03:01:30.270Z,1023.97
2022-11-06T03:02:30.292Z,1024.03
2022-11-06T03:03:30.135Z,1024.06
2022-11-06T03:04:30.113Z,1023.99
2022-11-06T03:05:30.126Z,1023.93
2022-11-06T03:06:30.123Z,1023.97
2022-11-06T03:07:30.138Z,1023.96
2022-11-06T03:08:30.125Z,1023.93
2022-11-06T03:09:30.104Z,1023.93
2022-11-06T03:10:30.103Z,1023.96
2022-11-06T03:11:30.140Z,1023.99
2022-11-06T03:12:30.118Z,1023.99
2022-11-06T03:13:30.104Z,1023.97
2022-11-06T03:14:30.113Z,1024.03
2022-11-06T03:15:30.111Z,1024.03
2022-11-06T03:16:30.112Z,1023.98
2022-11-06T03:17:30.126Z,1023.96
2022-11-06T03:18:30.104Z,1023.96
2022-11-06T03:19:30.110Z,1023.98
2022-11-06T03:20:30.106Z,1023.97
2022-11-06T03:21:30.105Z,1023.95
2022-11-06T03:22:30.118Z,1023.97
2022-11-06T03:23:30.109Z,1023.91
2022-11-06T03:24:31.327Z,1023.94
2022-11-06T03:25:30.116Z,1023.91
2022-11-06T03:26:30.120Z,1023.9
2022-11-06T03:27:30.122Z,1023.9
2022-11-06T03:28:30.109Z,1023.87
2022-11-06T03:29:30.110Z,1023.89
2022-11-06T03:30:30.112Z,1023.83
2022-11-06T03:31:30.123Z,1023.82
2022-11-06T03:32:30.118Z,1023.8
2022-11-06T03:33:30.123Z,1023.77
2022-11-06T03:34:30.124Z,1023.76
2022-11-06T03:35:30.120Z,1023.82
2022-11-06T03:36:30.125Z,1023.78
2022-11-06T03:37:30.156Z,1023.75
2022-11-06T03:38:30.121Z,1023.8
2022-11-06T03:39:30.126Z,1023.73
2022-11-06T03:40:30.119Z,1023.72
2022-11-06T03:41:30.135Z,1023.75
2022-11-06T03:42:30.136Z,1023.82
2022-11-06T03:43:30.167Z,1023.82
2022-11-06T03:44:30.129Z,1023.83
2022-11-06T03:45:30.127Z,1023.81
2022-11-06T03:46:30.122Z,1023.85
2022-11-06T03:47:30.140Z,1023.85
2022-11-06T03:48:30.125Z,1023.84
2022-11-06T03:49:30.121Z,1023.81
2022-11-06T03:50:30.135Z,1023.73
2022-11-06T03:51:30.115Z,1023.78
2022-11-06T03:52:30.137Z,1023.78
2022-11-06T03:53:30.135Z,1023.77
2022-11-06T03:54:30.126Z,1023.81
2022-11-06T03:55:30.187Z,1023.8
2022-11-06T03:56:30.138Z,1023.77
2022-11-06T03:57:30.134Z,1023.76
2022-11-06T03:58:30.177Z,1023.78
2022-11-06T03:59:30.127Z,1023.78
2022-11-06T04:00:30.114Z,1023.81
2022-11-06T04:01:30.312Z,1023.8
2022-11-06T04:02:30.189Z,1023.77
2022-11-06T04:03:30.131Z,1023.76
2022-11-06T04:04:30.127Z,1023.77
2022-11-06T04:05:30.126Z,1023.82
2022-11-06T04:06:30.129Z,1023.82
2022-11-06T04:07:30.148Z,1023.82
2022-11-06T04:08:30.122Z,1023.82
2022-11-06T04:09:30.129Z,1023.82
2022-11-06T04:10:30.121Z,1023.86
2022-11-06T04:11:30.151Z,1023.87
2022-11-06T04:12:30.133Z,1023.88
2022-11-06T04:13:30.122Z,1023.92
2022-11-06T04:14:30.127Z,1023.87
2022-11-06T04:15:30.125Z,1023.84
2022-11-06T04:16:30.111Z,1023.86
2022-11-06T04:17:30.142Z,1023.8
2022-11-06T04:18:30.122Z,1023.81
2022-11-06T04:19:30.131Z,1023.81
2022-11-06T04:20:30.109Z,1023.78
2022-11-06T04:21:30.128Z,1023.8
2022-11-06T04:22:30.114Z,1023.75
2022-11-06T04:23:30.108Z,1023.74
2022-11-06T04:24:30.109Z,1023.71
2022-11-06T04:25:30.114Z,1023.69
2022-11-06T04:26:30.125Z,1023.7
2022-11-06T04:27:30.113Z,1023.7
2022-11-06T04:28:30.104Z,1023.68
2022-11-06T04:29:30.146Z,1023.65
2022-11-06T04:30:30.107Z,1023.67
2022-11-06T04:31:30.115Z,1023.7
2022-11-06T04:32:30.120Z,1023.67
2022-11-06T04:33:30.110Z,1023.66
2022-11-06T04:34:30.112Z,1023.68
2022-11-06T04:35:30.117Z,1023.63
2022-11-06T04:36:30.113Z,1023.64
2022-11-06T04:37:30.143Z,1023.7
2022-11-06T04:38:30.109Z,1023.7
2022-11-06T04:39:30.136Z,1023.69
2022-11-06T04:40:30.126Z,1023.69
2022-11-06T04:41:30.140Z,1023.66
2022-11-06T04:42:30.136Z,1023.62
2022-11-06T04:43:30.128Z,1023.66
2022-11-06T04:44:30.190Z,1023.64
2022-11-06T04:45:30.131Z,1023.65
2022-11-06T04:46:30.122Z,1023.64
2022-11-06T04:47:30.195Z,1023.66
2022-11-06T04:48:30.120Z,1023.68
2022-11-06T04:49:30.130Z,1023.7
2022-11-06T04:50:30.128Z,1023.65
2022-11-06T04:51:30.131Z,1023.65
2022-11-06T04:52:30.135Z,1023.65
2022-11-06T04:53:30.128Z,1023.65
2022-11-06T04:54:30.135Z,1023.67
2022-11-06T04:55:30.129Z,1023.65
2022-11-06T04:56:34.020Z,1023.63
2022-11-06T04:57:30.145Z,1023.65
2022-11-06T04:58:30.124Z,1023.65
2022-11-06T04:59:30.135Z,1023.62
2022-11-06T05:00:30.153Z,1023.64
2022-11-06T05:01:30.267Z,1023.61
2022-11-06T05:02:30.291Z,1023.63
2022-11-06T05:03:30.130Z,1023.62
2022-11-06T05:04:32.404Z,1023.61
2022-11-06T05:05:30.131Z,1023.52
2022-11-06T05:06:30.560Z,1023.56
2022-11-06T05:07:30.142Z,1023.49
2022-11-06T05:08:30.131Z,1023.49
2022-11-06T05:09:30.129Z,1023.49
2022-11-06T05:10:30.116Z,1023.46
2022-11-06T05:11:30.337Z,1023.44
2022-11-06T05:12:30.134Z,1023.45
2022-11-06T05:13:30.136Z,1023.44
2022-11-06T05:14:30.124Z,1023.42
2022-11-06T05:15:30.127Z,1023.4
2022-11-06T05:16:30.126Z,1023.37
2022-11-06T05:17:34.031Z,1023.41
2022-11-06T05:18:30.178Z,1023.36
2022-11-06T05:19:30.121Z,1023.39
2022-11-06T05:20:30.116Z,1023.4
2022-11-06T05:21:30.122Z,1023.4
2022-11-06T05:22:30.135Z,1023.45
2022-11-06T05:23:30.131Z,1023.44
2022-11-06T05:24:30.129Z,1023.48
2022-11-06T05:25:30.123Z,1023.46
2022-11-06T05:26:30.139Z,1023.5
2022-11-06T05:27:30.122Z,1023.57
2022-11-06T05:28:30.118Z,1023.54
2022-11-06T05:29:30.110Z,1023.53
2022-11-06T05:30:30.115Z,1023.56
2022-11-06T05:31:30.107Z,1023.57
2022-11-06T05:32:31.325Z,1023.56
2022-11-06T05:33:30.107Z,1023.57
2022-11-06T05:34:30.115Z,1023.54
2022-11-06T05:35:30.106Z,1023.57
2022-11-06T05:36:30.113Z,1023.63
2022-11-06T05:37:30.132Z,1023.64
2022-11-06T05:38:30.108Z,1023.62
2022-11-06T05:39:30.111Z,1023.59
2022-11-06T05:40:30.114Z,1023.56
2022-11-06T05:41:30.141Z,1023.61
2022-11-06T05:42:30.135Z,1023.56
2022-11-06T05:43:30.116Z,1023.52
2022-11-06T05:44:30.106Z,1023.59
2022-11-06T05:45:30.117Z,1023.49
2022-11-06T05:46:47.621Z,1023.49
2022-11-06T05:47:30.133Z,1023.47
2022-11-06T05:48:30.134Z,1023.61
2022-11-06T05:49:30.126Z,1023.52
2022-11-06T05:50:30.111Z,1023.49
2022-11-06T05:51:30.128Z,1023.53
2022-11-06T05:52:30.212Z,1023.48
2022-11-06T05:53:30.133Z,1023.51
2022-11-06T05:54:30.126Z,1023.56
2022-11-06T05:55:30.123Z,1023.51
2022-11-06T05:56:30.148Z,1023.5
2022-11-06T05:57:30.139Z,1023.49
2022-11-06T05:58:30.130Z,1023.46
2022-11-06T05:59:30.125Z,1023.49
2022-11-06T06:00:30.120Z,1023.48
2022-11-06T06:01:30.234Z,1023.53
2022-11-06T06:02:30.256Z,1023.52
2022-11-06T06:03:30.132Z,1023.57
2022-11-06T06:04:30.167Z,1023.52
2022-11-06T06:05:30.125Z,1023.56
2022-11-06T06:06:30.126Z,1023.49
2022-11-06T06:07:30.139Z,1023.48
2022-11-06T06:08:30.126Z,1023.47
2022-11-06T06:09:30.133Z,1023.47
2022-11-06T06:10:30.140Z,1023.54
2022-11-06T06:11:30.143Z,1023.56
2022-11-06T06:12:30.147Z,1023.6
2022-11-06T06:13:30.122Z,1023.58
2022-11-06T06:14:30.132Z,1023.56
2022-11-06T06:15:30.127Z,1023.58
2022-11-06T06:16:30.141Z,1023.67
2022-11-06T06:17:30.151Z,1023.66
2022-11-06T06:18:30.120Z,1023.65
2022-11-06T06:19:30.133Z,1023.68
2022-11-06T06:20:30.114Z,1023.63
2022-11-06T06:21:30.128Z,1023.75
2022-11-06T06:22:30.142Z,1023.61
2022-11-06T06:23:30.133Z,1023.6
2022-11-06T06:24:30.244Z,1023.67
2022-11-06T06:25:30.127Z,1023.69
2022-11-06T06:26:30.136Z,1023.72
2022-11-06T06:27:30.136Z,1023.65
2022-11-06T06:28:30.137Z,1023.73
2022-11-06T06:29:30.164Z,1023.73
2022-11-06T06:30:30.113Z,1023.65
2022-11-06T06:31:30.129Z,1023.66
2022-11-06T06:32:30.114Z,1023.65
2022-11-06T06:33:30.136Z,1023.61
2022-11-06T06:34:30.132Z,1023.6
2022-11-06T06:35:30.130Z,1023.67
2022-11-06T06:36:30.145Z,1023.65
2022-11-06T06:37:30.136Z,1023.62
2022-11-06T06:38:30.114Z,1023.68
2022-11-06T06:39:30.107Z,1023.71
2022-11-06T06:40:30.108Z,1023.68
2022-11-06T06:41:30.130Z,1023.73
2022-11-06T06:42:31.357Z,1023.68
2022-11-06T06:43:30.115Z,1023.72
2022-11-06T06:44:30.169Z,1023.65
2022-11-06T06:45:30.124Z,1023.68
2022-11-06T06:46:30.110Z,1023.68
2022-11-06T06:47:30.126Z,1023.62
2022-11-06T06:48:30.112Z,1023.65
2022-11-06T06:49:30.110Z,1023.69
2022-11-06T06:50:30.110Z,1023.66
2022-11-06T06:51:30.126Z,1023.68
2022-11-06T06:52:30.117Z,1023.7
2022-11-06T06:53:30.113Z,1023.71
2022-11-06T06:54:30.107Z,1023.8
2022-11-06T06:55:30.113Z,1023.78
2022-11-06T06:56:30.385Z,1023.8
2022-11-06T06:57:30.122Z,1023.75
2022-11-06T06:58:30.107Z,1023.78
2022-11-06T06:59:30.126Z,1023.75
2022-11-06T07:00:30.244Z,1023.72
2022-11-06T07:01:30.280Z,1023.75
2022-11-06T07:02:30.227Z,1023.74
2022-11-06T07:03:30.134Z,1023.75
2022-11-06T07:04:30.127Z,1023.78
2022-11-06T07:05:30.126Z,1023.75
2022-11-06T07:06:30.127Z,1023.76
2022-11-06T07:07:30.149Z,1023.75
2022-11-06T07:08:30.122Z,1023.8
2022-11-06T07:09:30.131Z,1023.8
2022-11-06T07:10:30.113Z,1023.82
2022-11-06T07:11:30.150Z,1023.81
2022-11-06T07:12:30.135Z,1023.84
2022-11-06T07:13:35.425Z,1023.91
2022-11-06T07:14:30.130Z,1023.89
2022-11-06T07:15:30.129Z,1023.9
2022-11-06T07:16:30.125Z,1023.89
2022-11-06T07:17:30.145Z,1023.85
2022-11-06T07:18:30.122Z,1023.85
2022-11-06T07:19:30.126Z,1023.81
2022-11-06T07:20:30.112Z,1023.81
2022-11-06T07:21:30.133Z,1023.83
2022-11-06T07:22:36.696Z,1023.74
2022-11-06T07:23:30.125Z,1023.74
2022-11-06T07:24:30.141Z,1023.74
2022-11-06T07:25:30.135Z,1023.76
2022-11-06T07:26:30.139Z,1023.73
2022-11-06T07:27:30.139Z,1023.74
2022-11-06T07:28:30.133Z,1023.69
2022-11-06T07:29:30.126Z,1023.72
2022-11-06T07:30:30.112Z,1023.68
2022-11-06T07:31:30.127Z,1023.72
2022-11-06T07:32:30.134Z,1023.73
2022-11-06T07:33:30.135Z,1023.78
2022-11-06T07:34:30.127Z,1023.77
2022-11-06T07:35:30.131Z,1023.8
2022-11-06T07:36:30.127Z,1023.75
2022-11-06T07:37:30.138Z,1023.74
2022-11-06T07:38:30.127Z,1023.68
2022-11-06T07:39:30.131Z,1023.67
2022-11-06T07:40:30.105Z,1023.71
2022-11-06T07:41:30.135Z,1023.71
2022-11-06T07:42:30.198Z,1023.68
2022-11-06T07:43:30.129Z,1023.73
2022-11-06T07:44:30.120Z,1023.72
2022-11-06T07:45:30.124Z,1023.73
2022-11-06T07:46:30.126Z,1023.76
2022-11-06T07:47:30.130Z,1023.76
2022-11-06T07:48:30.128Z,1023.73
2022-11-06T07:49:30.125Z,1023.82
2022-11-06T07:50:30.111Z,1023.87
2022-11-06T07:51:30.117Z,1023.9
2022-11-06T07:52:30.115Z,1023.78
2022-11-06T07:53:30.111Z,1023.83
2022-11-06T07:54:30.109Z,1023.86
2022-11-06T07:55:30.111Z,1023.78
2022-11-06T07:56:30.129Z,1023.8
2022-11-06T07:57:30.144Z,1023.82
2022-11-06T07:58:30.106Z,1023.82
2022-11-06T07:59:30.106Z,1023.81
2022-11-06T08:00:30.116Z,1023.81
2022-11-06T08:01:30.215Z,1023.83
2022-11-06T08:02:30.182Z,1023.82
2022-11-06T08:03:30.297Z,1023.75
2022-11-06T08:04:30.112Z,1023.76
2022-11-06T08:05:30.107Z,1023.77
2022-11-06T08:06:30.105Z,1023.77
2022-11-06T08:07:30.127Z,1023.73
2022-11-06T08:08:30.111Z,1023.75
2022-11-06T08:09:30.120Z,1023.75
2022-11-06T08:10:30.107Z,1023.76
2022-11-06T08:11:30.151Z,1023.78
2022-11-06T08:12:30.122Z,1023.74
2022-11-06T08:13:30.122Z,1023.74
2022-11-06T08:14:30.126Z,1023.7
2022-11-06T08:15:30.132Z,1023.7
2022-11-06T08:16:30.126Z,1023.77
2022-11-06T08:17:30.146Z,1023.76
2022-11-06T08:18:30.116Z,1023.75
2022-11-06T08:19:30.130Z,1023.75
2022-11-06T08:20:30.108Z,1023.73
2022-11-06T08:21:30.126Z,1023.74
2022-11-06T08:22:30.137Z,1023.75
2022-11-06T08:23:30.125Z,1023.78
2022-11-06T08:24:30.149Z,1023.8
2022-11-06T08:25:30.140Z,1023.83
2022-11-06T08:26:30.133Z,1023.77
2022-11-06T08:27:30.141Z,1023.74
2022-11-06T08:28:30.123Z,1023.8
2022-11-06T08:29:30.125Z,1023.71
2022-11-06T08:30:30.115Z,1023.71
2022-11-06T08:31:30.126Z,1023.71
2022-11-06T08:32:30.130Z,1023.65
2022-11-06T08:33:30.130Z,1023.74
2022-11-06T08:34:30.130Z,1023.81
2022-11-06T08:35:30.140Z,1023.64
2022-11-06T08:36:30.126Z,1023.66
2022-11-06T08:37:30.140Z,1023.64
2022-11-06T08:38:30.202Z,1023.62
2022-11-06T08:39:30.123Z,1023.66
2022-11-06T08:40:31.347Z,1023.57
2022-11-06T08:41:30.140Z,1023.57
2022-11-06T08:42:30.131Z,1023.57
2022-11-06T08:43:30.127Z,1023.68
2022-11-06T08:44:30.147Z,1023.58
2022-11-06T08:45:30.131Z,1023.58
2022-11-06T08:46:30.127Z,1023.59
2022-11-06T08:47:30.144Z,1023.6
2022-11-06T08:48:30.130Z,1023.53
2022-11-06T08:49:30.124Z,1023.52
2022-11-06T08:50:30.112Z,1023.51
2022-11-06T08:51:30.178Z,1023.61
2022-11-06T08:52:34.065Z,1023.43
2022-11-06T08:53:30.171Z,1023.6
2022-11-06T08:54:30.131Z,1023.53
2022-11-06T08:55:30.129Z,1023.43
2022-11-06T08:56:30.142Z,1023.53
2022-11-06T08:57:30.134Z,1023.36
2022-11-06T08:58:30.133Z,1023.48
2022-11-06T08:59:30.113Z,1023.43
2022-11-06T09:00:30.113Z,1023.41
2022-11-06T09:01:30.304Z,1023.47
2022-11-06T09:02:30.185Z,1023.42
2022-11-06T09:03:30.123Z,1023.43
2022-11-06T09:04:30.113Z,1023.44
2022-11-06T09:05:30.137Z,1023.39
2022-11-06T09:06:30.108Z,1023.38
2022-11-06T09:07:30.148Z,1023.35
2022-11-06T09:08:30.112Z,1023.29
2022-11-06T09:09:30.112Z,1023.29
2022-11-06T09:10:30.110Z,1023.4
2022-11-06T09:11:30.129Z,1023.25
2022-11-06T09:12:30.120Z,1023.22
2022-11-06T09:13:30.119Z,1023.22
2022-11-06T09:14:30.106Z,1023.21
2022-11-06T09:15:30.108Z,1023.18
2022-11-06T09:16:30.109Z,1023.17
2022-11-06T09:17:30.296Z,1023.25
2022-11-06T09:18:30.113Z,1023.22
2022-11-06T09:19:30.110Z,1023.25
2022-11-06T09:20:52.134Z,1023.37
2022-11-06T09:21:54.673Z,1023.27
2022-11-06T09:22:50.883Z,1023.27
2022-11-06T09:23:50.916Z,1023.3
2022-11-06T09:25:03.122Z,1023.19
2022-11-06T09:25:50.862Z,1023.19
2022-11-06T09:26:50.882Z,1023.13
2022-11-06T09:27:55.657Z,1023.13
2022-11-06T09:28:50.866Z,1023.18
2022-11-06T09:30:55.368Z,1023.12
2022-11-06T09:31:54.196Z,1023.14
2022-11-06T09:32:54.198Z,1023.1
2022-11-06T09:33:54.189Z,1023.05
2022-11-06T09:34:54.208Z,1023.08
2022-11-06T09:35:54.193Z,1023.08
2022-11-06T09:36:54.236Z,1023.03
2022-11-06T09:37:54.205Z,1023.05
2022-11-06T09:38:54.181Z,1023.02
2022-11-06T09:39:54.175Z,1023.02
2022-11-06T09:40:54.177Z,1023.05
2022-11-06T09:41:54.186Z,1023.01
2022-11-06T09:42:54.191Z,1023.04
2022-11-06T09:44:05.539Z,1023.01
2022-11-06T09:44:54.177Z,1022.97
2022-11-06T09:45:55.089Z,1022.92
2022-11-06T09:46:54.185Z,1023.01
2022-11-06T09:47:54.181Z,1022.98
2022-11-06T09:48:54.206Z,1022.98
2022-11-06T09:49:54.168Z,1023
2022-11-06T09:50:54.178Z,1023.03
2022-11-06T09:51:54.185Z,1023.13
2022-11-06T09:52:54.585Z,1023.12
2022-11-06T09:53:54.175Z,1023.07
2022-11-06T09:54:56.364Z,1023.12
2022-11-06T09:55:54.177Z,1023.13
2022-11-06T09:56:54.890Z,1023.11
2022-11-06T09:57:54.168Z,1023.12
2022-11-06T09:58:54.168Z,1023.13
2022-11-06T09:59:54.172Z,1023.12
2022-11-06T10:00:54.252Z,1023.13
2022-11-06T10:01:54.395Z,1023.1
2022-11-06T10:02:54.223Z,1023.08
2022-11-06T10:03:54.177Z,1023.18
2022-11-06T10:04:54.161Z,1023.11
2022-11-06T10:05:54.159Z,1023.11
2022-11-06T10:06:54.153Z,1023.1
2022-11-06T10:07:54.356Z,1023.05
2022-11-06T10:08:54.248Z,1023.02
2022-11-06T10:09:54.153Z,1023.02
2022-11-06T10:10:54.155Z,1023.02
2022-11-06T10:11:54.164Z,1023.02
2022-11-06T10:12:54.179Z,1023.02
2022-11-06T10:13:54.181Z,1022.92
2022-11-06T10:14:54.196Z,1023
2022-11-06T10:15:54.156Z,1022.94
2022-11-06T10:16:54.148Z,1022.91
2022-11-06T10:17:54.169Z,1022.85
2022-11-06T10:18:54.165Z,1022.77
2022-11-06T10:19:54.158Z,1022.79
2022-11-06T10:20:54.174Z,1022.8
2022-11-06T10:21:54.163Z,1022.84
2022-11-06T10:22:54.163Z,1022.79
2022-11-06T10:23:54.155Z,1022.8
2022-11-06T10:24:54.150Z,1022.78
2022-11-06T10:25:54.149Z,1022.78
2022-11-06T10:26:54.160Z,1022.73
2022-11-06T10:27:54.166Z,1022.77
2022-11-06T10:28:54.146Z,1022.76
2022-11-06T10:29:54.151Z,1022.72
2022-11-06T10:30:54.172Z,1022.7
2022-11-06T10:31:54.171Z,1022.69
2022-11-06T10:32:54.188Z,1022.61
2022-11-06T10:33:54.165Z,1022.63
2022-11-06T10:34:54.164Z,1022.59
2022-11-06T10:35:54.171Z,1022.63
2022-11-06T10:36:54.163Z,1022.6
2022-11-06T10:37:54.168Z,1022.6
2022-11-06T10:38:54.167Z,1022.6
2022-11-06T10:39:54.170Z,1022.58
2022-11-06T10:40:54.161Z,1022.64
2022-11-06T10:41:54.169Z,1022.58
2022-11-06T10:42:54.191Z,1022.56
2022-11-06T10:43:54.165Z,1022.56
2022-11-06T10:44:54.146Z,1022.56
2022-11-06T10:45:54.171Z,1022.56
2022-11-06T10:46:54.164Z,1022.63
2022-11-06T10:47:54.180Z,1022.55
2022-11-06T10:48:54.165Z,1022.6
2022-11-06T10:49:54.161Z,1022.53
2022-11-06T10:50:54.162Z,1022.52
2022-11-06T10:51:54.174Z,1022.55
2022-11-06T10:52:54.186Z,1022.43
2022-11-06T10:53:54.166Z,1022.37
2022-11-06T10:54:54.168Z,1022.34
2022-11-06T10:55:54.157Z,1022.34
2022-11-06T10:56:54.215Z,1022.3
2022-11-06T10:57:54.173Z,1022.42
2022-11-06T10:58:54.166Z,1022.27
2022-11-06T10:59:54.172Z,1022.25
2022-11-06T11:00:54.207Z,1022.2
2022-11-06T11:01:54.521Z,1022.21
2022-11-06T11:02:54.173Z,1022.21
2022-11-06T11:04:28.618Z,1022.21
2022-11-06T11:05:28.121Z,1022.18
2022-11-06T11:07:08.853Z,1022.04
2022-11-06T11:08:07.638Z,1022.05
2022-11-06T11:09:07.633Z,1022.05
2022-11-06T11:10:07.756Z,1022.04
2022-11-06T11:11:07.694Z,1022.02
2022-11-06T11:12:07.633Z,1022.01
2022-11-06T11:13:08.902Z,1021.96
2022-11-06T11:14:08.097Z,1022.03
2022-11-06T11:15:53.475Z,1021.88
2022-11-06T11:16:51.611Z,1021.98
2022-11-06T11:17:51.601Z,1022.02
2022-11-06T11:18:51.612Z,1021.9
2022-11-06T11:19:51.597Z,1021.95
2022-11-06T11:20:51.600Z,1021.84
2022-11-06T11:21:51.601Z,1021.84
2022-11-06T11:22:51.666Z,1021.99
2022-11-06T11:23:51.606Z,1021.96
2022-11-06T11:24:51.595Z,1022.03
2022-11-06T11:25:51.602Z,1021.92
2022-11-06T11:27:24.726Z,1021.91
2022-11-06T11:28:23.588Z,1021.98
2022-11-06T11:29:23.542Z,1021.89
2022-11-06T11:30:23.619Z,1021.89
2022-11-06T11:31:23.543Z,1021.9
2022-11-06T11:32:23.549Z,1021.9
2022-11-06T11:33:23.559Z,1021.94
2022-11-06T11:34:23.550Z,1021.89
2022-11-06T11:35:23.547Z,1021.94
2022-11-06T11:36:23.541Z,1021.9
2022-11-06T11:37:38.548Z,1021.9
2022-11-06T11:38:37.511Z,1021.83
2022-11-06T11:39:37.493Z,1021.82
2022-11-06T11:40:37.485Z,1021.85
2022-11-06T11:41:37.474Z,1021.74
2022-11-06T11:42:37.576Z,1021.78
2022-11-06T11:43:37.506Z,1021.73
2022-11-06T11:44:37.484Z,1021.74
2022-11-06T11:45:37.481Z,1021.76
2022-11-06T11:46:37.479Z,1021.71
2022-11-06T11:47:37.469Z,1021.7
2022-11-06T11:48:37.479Z,1021.82
2022-11-06T11:49:37.470Z,1021.75
2022-11-06T11:50:43.795Z,1021.71
2022-11-06T11:52:33.243Z,1021.71
2022-11-06T11:53:32.196Z,1021.76
2022-11-06T11:54:32.190Z,1021.78
2022-11-06T11:55:32.196Z,1021.78
2022-11-06T11:57:02.450Z,1021.78
2022-11-06T11:58:13.337Z,1021.77
2022-11-06T11:59:10.808Z,1021.75
2022-11-06T12:00:10.815Z,1021.72
2022-11-06T12:01:10.799Z,1021.71
2022-11-06T12:02:10.997Z,1021.73
2022-11-06T12:03:10.949Z,1021.7
2022-11-06T12:04:10.794Z,1021.73
2022-11-06T12:05:10.847Z,1021.66
2022-11-06T12:06:10.786Z,1021.7
2022-11-06T12:07:10.787Z,1021.61
2022-11-06T12:08:11.015Z,1021.59
2022-11-06T12:09:10.796Z,1021.59
2022-11-06T12:10:11.188Z,1021.53
2022-11-06T12:11:10.787Z,1021.57
2022-11-06T12:12:11.349Z,1021.49
2022-11-06T12:13:10.797Z,1021.47
2022-11-06T12:14:10.804Z,1021.51